sensor_id;sensor_type;location;lat;lon;timestamp;P1;durP1;ratioP1;P2;durP2;ratioP2
40595;SDS011;26304;48.794;9.820;2022-09-03T00:01:44;3.00;;;1.10;;
40595;SDS011;26304;48.794;9.820;2022-09-03T00:07:34;0.93;;;0.93;;
40595;SDS011;26304;48.794;9.820;2022-09-03T00:13:24;3.25;;;1.42;;
40595;SDS011;26304;48.794;9.820;2022-09-03T00:19:11;0.90;;;0.90;;
40595;SDS011;26304;48.794;9.820;2022-09-03T00:24:58;1.75;;;1.10;;
40595;SDS011;26304;48.794;9.820;2022-09-03T00:30:46;1.30;;;1.20;;
40595;SDS011;26304;48.794;9.820;2022-09-03T00:36:39;1.88;;;1.10;;
40595;SDS011;26304;48.794;9.820;2022-09-03T00:42:26;1.15;;;1.08;;
40595;SDS011;26304;48.794;9.820;2022-09-03T00:48:20;1.58;;;0.95;;
40595;SDS011;26304;48.794;9.820;2022-09-03T00:54:09;2.08;;;1.20;;
40595;SDS011;26304;48.794;9.820;2022-09-03T01:00:00;1.02;;;1.00;;
40595;SDS011;26304;48.794;9.820;2022-09-03T01:05:51;1.40;;;1.20;;
40595;SDS011;26304;48.794;9.820;2022-09-03T01:11:46;1.63;;;1.15;;
40595;SDS011;26304;48.794;9.820;2022-09-03T01:17:45;1.65;;;1.20;;
40595;SDS011;26304;48.794;9.820;2022-09-03T01:29:55;1.95;;;0.95;;
40595;SDS011;26304;48.794;9.820;2022-09-03T01:35:45;2.60;;;1.25;;
40595;SDS011;26304;48.794;9.820;2022-09-03T01:41:32;3.42;;;1.17;;
40595;SDS011;26304;48.794;9.820;2022-09-03T01:47:47;2.00;;;1.20;;
40595;SDS011;26304;48.794;9.820;2022-09-03T01:53:44;1.40;;;1.20;;
40595;SDS011;26304;48.794;9.820;2022-09-03T01:59:42;1.55;;;1.40;;
40595;SDS011;26304;48.794;9.820;2022-09-03T02:05:31;1.38;;;1.20;;
40595;SDS011;26304;48.794;9.820;2022-09-03T02:11:15;1.40;;;1.30;;
40595;SDS011;26304;48.794;9.820;2022-09-03T02:16:58;1.23;;;1.13;;
40595;SDS011;26304;48.794;9.820;2022-09-03T02:22:44;2.05;;;1.50;;
40595;SDS011;26304;48.794;9.820;2022-09-03T02:28:27;1.20;;;1.10;;
40595;SDS011;26304;48.794;9.820;2022-09-03T02:34:11;1.33;;;1.23;;
40595;SDS011;26304;48.794;9.820;2022-09-03T02:39:55;1.58;;;1.48;;
40595;SDS011;26304;48.794;9.820;2022-09-03T02:45:38;1.73;;;1.20;;
40595;SDS011;26304;48.794;9.820;2022-09-03T02:51:30;1.30;;;1.20;;
40595;SDS011;26304;48.794;9.820;2022-09-03T02:57:15;1.33;;;1.23;;
40595;SDS011;26304;48.794;9.820;2022-09-03T03:02:58;1.95;;;1.60;;
40595;SDS011;26304;48.794;9.820;2022-09-03T03:08:41;1.42;;;1.02;;
40595;SDS011;26304;48.794;9.820;2022-09-03T03:14:25;1.30;;;1.20;;
40595;SDS011;26304;48.794;9.820;2022-09-03T03:20:08;2.95;;;1.20;;
40595;SDS011;26304;48.794;9.820;2022-09-03T03:25:51;1.85;;;1.50;;
40595;SDS011;26304;48.794;9.820;2022-09-03T03:31:35;1.87;;;1.30;;
40595;SDS011;26304;48.794;9.820;2022-09-03T03:37:17;4.22;;;2.42;;
40595;SDS011;26304;48.794;9.820;2022-09-03T03:43:00;1.50;;;1.40;;
40595;SDS011;26304;48.794;9.820;2022-09-03T03:48:46;3.30;;;1.63;;
40595;SDS011;26304;48.794;9.820;2022-09-03T03:54:28;1.73;;;1.25;;
40595;SDS011;26304;48.794;9.820;2022-09-03T04:00:11;1.55;;;1.20;;
40595;SDS011;26304;48.794;9.820;2022-09-03T04:05:56;4.57;;;1.33;;
40595;SDS011;26304;48.794;9.820;2022-09-03T04:11:40;1.00;;;1.00;;
40595;SDS011;26304;48.794;9.820;2022-09-03T04:17:23;1.42;;;0.90;;
40595;SDS011;26304;48.794;9.820;2022-09-03T04:23:07;3.13;;;1.45;;
40595;SDS011;26304;48.794;9.820;2022-09-03T04:28:49;1.40;;;1.30;;
40595;SDS011;26304;48.794;9.820;2022-09-03T04:34:32;1.40;;;1.23;;
40595;SDS011;26304;48.794;9.820;2022-09-03T04:40:16;2.22;;;1.30;;
40595;SDS011;26304;48.794;9.820;2022-09-03T04:45:59;2.58;;;1.60;;
40595;SDS011;26304;48.794;9.820;2022-09-03T04:51:42;1.30;;;1.20;;
40595;SDS011;26304;48.794;9.820;2022-09-03T04:57:26;2.13;;;1.65;;
40595;SDS011;26304;48.794;9.820;2022-09-03T05:03:14;1.20;;;1.10;;
40595;SDS011;26304;48.794;9.820;2022-09-03T05:08:56;1.52;;;1.27;;
40595;SDS011;26304;48.794;9.820;2022-09-03T05:14:41;1.45;;;1.35;;
40595;SDS011;26304;48.794;9.820;2022-09-03T05:20:23;1.40;;;1.30;;
40595;SDS011;26304;48.794;9.820;2022-09-03T05:26:06;2.35;;;1.30;;
40595;SDS011;26304;48.794;9.820;2022-09-03T05:31:51;2.42;;;1.70;;
40595;SDS011;26304;48.794;9.820;2022-09-03T05:37:34;1.42;;;1.33;;
40595;SDS011;26304;48.794;9.820;2022-09-03T05:43:17;1.40;;;1.30;;
40595;SDS011;26304;48.794;9.820;2022-09-03T05:49:02;1.58;;;1.48;;
40595;SDS011;26304;48.794;9.820;2022-09-03T05:54:46;2.08;;;1.27;;
40595;SDS011;26304;48.794;9.820;2022-09-03T06:00:28;1.42;;;1.33;;
40595;SDS011;26304;48.794;9.820;2022-09-03T06:06:12;1.98;;;1.27;;
40595;SDS011;26304;48.794;9.820;2022-09-03T06:11:55;1.52;;;1.42;;
40595;SDS011;26304;48.794;9.820;2022-09-03T06:17:37;1.35;;;1.13;;
40595;SDS011;26304;48.794;9.820;2022-09-03T06:23:21;1.33;;;1.23;;
40595;SDS011;26304;48.794;9.820;2022-09-03T06:29:04;1.40;;;1.30;;
40595;SDS011;26304;48.794;9.820;2022-09-03T06:34:48;1.75;;;1.20;;
40595;SDS011;26304;48.794;9.820;2022-09-03T06:40:31;1.25;;;1.13;;
40595;SDS011;26304;48.794;9.820;2022-09-03T06:46:14;1.40;;;1.30;;
40595;SDS011;26304;48.794;9.820;2022-09-03T06:51:58;1.60;;;1.50;;
40595;SDS011;26304;48.794;9.820;2022-09-03T06:57:41;1.50;;;1.40;;
40595;SDS011;26304;48.794;9.820;2022-09-03T07:03:24;1.33;;;1.23;;
40595;SDS011;26304;48.794;9.820;2022-09-03T07:09:07;1.42;;;1.27;;
40595;SDS011;26304;48.794;9.820;2022-09-03T07:14:51;2.35;;;1.52;;
40595;SDS011;26304;48.794;9.820;2022-09-03T07:20:34;1.38;;;1.27;;
40595;SDS011;26304;48.794;9.820;2022-09-03T07:26:17;1.30;;;1.20;;
40595;SDS011;26304;48.794;9.820;2022-09-03T07:32:03;1.52;;;1.42;;
40595;SDS011;26304;48.794;9.820;2022-09-03T07:37:46;1.25;;;1.23;;
40595;SDS011;26304;48.794;9.820;2022-09-03T07:43:28;1.50;;;1.40;;
40595;SDS011;26304;48.794;9.820;2022-09-03T07:49:15;2.25;;;1.48;;
40595;SDS011;26304;48.794;9.820;2022-09-03T07:54:58;1.33;;;1.27;;
40595;SDS011;26304;48.794;9.820;2022-09-03T08:00:40;1.52;;;1.42;;
40595;SDS011;26304;48.794;9.820;2022-09-03T08:06:24;1.50;;;1.40;;
40595;SDS011;26304;48.794;9.820;2022-09-03T08:12:08;1.77;;;1.67;;
40595;SDS011;26304;48.794;9.820;2022-09-03T08:17:51;1.80;;;1.70;;
40595;SDS011;26304;48.794;9.820;2022-09-03T08:23:37;1.63;;;1.52;;
40595;SDS011;26304;48.794;9.820;2022-09-03T08:29:20;1.90;;;1.60;;
40595;SDS011;26304;48.794;9.820;2022-09-03T08:35:03;1.67;;;1.58;;
40595;SDS011;26304;48.794;9.820;2022-09-03T08:40:47;1.60;;;1.50;;
40595;SDS011;26304;48.794;9.820;2022-09-03T08:46:36;1.50;;;1.40;;
40595;SDS011;26304;48.794;9.820;2022-09-03T08:52:29;1.80;;;1.70;;
40595;SDS011;26304;48.794;9.820;2022-09-03T08:58:16;1.85;;;1.75;;
40595;SDS011;26304;48.794;9.820;2022-09-03T09:04:03;1.70;;;1.60;;
40595;SDS011;26304;48.794;9.820;2022-09-03T09:09:53;1.90;;;1.80;;
40595;SDS011;26304;48.794;9.820;2022-09-03T09:15:47;1.40;;;1.30;;
40595;SDS011;26304;48.794;9.820;2022-09-03T09:21:35;1.50;;;1.40;;
40595;SDS011;26304;48.794;9.820;2022-09-03T09:27:26;1.50;;;1.40;;
40595;SDS011;26304;48.794;9.820;2022-09-03T09:33:11;1.75;;;1.65;;
40595;SDS011;26304;48.794;9.820;2022-09-03T09:38:53;1.60;;;1.50;;
40595;SDS011;26304;48.794;9.820;2022-09-03T09:44:36;1.85;;;1.70;;
40595;SDS011;26304;48.794;9.820;2022-09-03T09:50:21;1.63;;;1.52;;
40595;SDS011;26304;48.794;9.820;2022-09-03T09:56:04;2.28;;;1.60;;
40595;SDS011;26304;48.794;9.820;2022-09-03T10:01:47;1.70;;;1.60;;
40595;SDS011;26304;48.794;9.820;2022-09-03T10:07:31;3.40;;;2.10;;
40595;SDS011;26304;48.794;9.820;2022-09-03T10:13:15;1.85;;;1.75;;
40595;SDS011;26304;48.794;9.820;2022-09-03T10:19:02;4.80;;;1.83;;
40595;SDS011;26304;48.794;9.820;2022-09-03T10:24:52;3.00;;;1.73;;
40595;SDS011;26304;48.794;9.820;2022-09-03T10:30:44;3.55;;;1.80;;
40595;SDS011;26304;48.794;9.820;2022-09-03T10:36:36;2.15;;;1.98;;
40595;SDS011;26304;48.794;9.820;2022-09-03T10:42:31;2.22;;;1.70;;
40595;SDS011;26304;48.794;9.820;2022-09-03T10:54:40;2.38;;;1.70;;
40595;SDS011;26304;48.794;9.820;2022-09-03T11:00:46;2.45;;;2.20;;
40595;SDS011;26304;48.794;9.820;2022-09-03T11:06:36;3.13;;;2.13;;
40595;SDS011;26304;48.794;9.820;2022-09-03T11:12:28;3.33;;;1.73;;
40595;SDS011;26304;48.794;9.820;2022-09-03T11:18:15;2.55;;;1.80;;
40595;SDS011;26304;48.794;9.820;2022-09-03T11:24:04;1.90;;;1.80;;
40595;SDS011;26304;48.794;9.820;2022-09-03T11:29:54;1.80;;;1.70;;
40595;SDS011;26304;48.794;9.820;2022-09-03T11:35:41;1.90;;;1.80;;
40595;SDS011;26304;48.794;9.820;2022-09-03T11:41:24;2.00;;;1.67;;
40595;SDS011;26304;48.794;9.820;2022-09-03T11:47:12;1.83;;;1.73;;
40595;SDS011;26304;48.794;9.820;2022-09-03T11:53:08;1.83;;;1.73;;
40595;SDS011;26304;48.794;9.820;2022-09-03T11:58:59;2.22;;;1.63;;
40595;SDS011;26304;48.794;9.820;2022-09-03T12:04:46;1.88;;;1.77;;
40595;SDS011;26304;48.794;9.820;2022-09-03T12:10:38;1.80;;;1.70;;
40595;SDS011;26304;48.794;9.820;2022-09-03T12:16:38;2.05;;;1.92;;
40595;SDS011;26304;48.794;9.820;2022-09-03T12:22:38;1.95;;;1.73;;
40595;SDS011;26304;48.794;9.820;2022-09-03T12:28:23;1.50;;;1.40;;
40595;SDS011;26304;48.794;9.820;2022-09-03T12:34:09;1.60;;;1.50;;
40595;SDS011;26304;48.794;9.820;2022-09-03T12:39:53;2.00;;;1.80;;
40595;SDS011;26304;48.794;9.820;2022-09-03T12:45:42;1.70;;;1.60;;
40595;SDS011;26304;48.794;9.820;2022-09-03T12:51:26;1.65;;;1.55;;
40595;SDS011;26304;48.794;9.820;2022-09-03T12:57:13;1.85;;;1.70;;
40595;SDS011;26304;48.794;9.820;2022-09-03T13:03:03;2.00;;;1.63;;
40595;SDS011;26304;48.794;9.820;2022-09-03T13:08:50;1.85;;;1.75;;
40595;SDS011;26304;48.794;9.820;2022-09-03T13:14:42;2.05;;;1.60;;
40595;SDS011;26304;48.794;9.820;2022-09-03T13:20:31;2.00;;;1.90;;
40595;SDS011;26304;48.794;9.820;2022-09-03T13:26:22;1.58;;;1.48;;
40595;SDS011;26304;48.794;9.820;2022-09-03T13:32:15;1.67;;;1.58;;
40595;SDS011;26304;48.794;9.820;2022-09-03T13:38:15;1.80;;;1.70;;
40595;SDS011;26304;48.794;9.820;2022-09-03T13:44:07;2.42;;;1.75;;
40595;SDS011;26304;48.794;9.820;2022-09-03T13:49:56;1.70;;;1.60;;
40595;SDS011;26304;48.794;9.820;2022-09-03T13:56:05;1.60;;;1.50;;
40595;SDS011;26304;48.794;9.820;2022-09-03T14:02:04;1.88;;;1.60;;
40595;SDS011;26304;48.794;9.820;2022-09-03T14:08:01;1.60;;;1.50;;
40595;SDS011;26304;48.794;9.820;2022-09-03T14:13:55;1.50;;;1.40;;
40595;SDS011;26304;48.794;9.820;2022-09-03T14:19:47;1.65;;;1.55;;
40595;SDS011;26304;48.794;9.820;2022-09-03T14:25:37;1.60;;;1.50;;
40595;SDS011;26304;48.794;9.820;2022-09-03T14:31:23;1.60;;;1.40;;
40595;SDS011;26304;48.794;9.820;2022-09-03T14:37:19;1.55;;;1.45;;
40595;SDS011;26304;48.794;9.820;2022-09-03T14:43:20;1.45;;;1.35;;
40595;SDS011;26304;48.794;9.820;2022-09-03T14:49:22;1.80;;;1.70;;
40595;SDS011;26304;48.794;9.820;2022-09-03T14:55:21;2.30;;;1.60;;
40595;SDS011;26304;48.794;9.820;2022-09-03T15:01:12;1.77;;;1.67;;
40595;SDS011;26304;48.794;9.820;2022-09-03T15:13:13;2.90;;;1.50;;
40595;SDS011;26304;48.794;9.820;2022-09-03T15:19:04;1.70;;;1.58;;
40595;SDS011;26304;48.794;9.820;2022-09-03T15:24:57;1.73;;;1.55;;
40595;SDS011;26304;48.794;9.820;2022-09-03T15:30:52;2.28;;;1.42;;
40595;SDS011;26304;48.794;9.820;2022-09-03T15:36:40;1.60;;;1.50;;
40595;SDS011;26304;48.794;9.820;2022-09-03T15:42:29;1.52;;;1.42;;
40595;SDS011;26304;48.794;9.820;2022-09-03T15:48:15;2.28;;;1.50;;
40595;SDS011;26304;48.794;9.820;2022-09-03T15:54:06;1.50;;;0.90;;
40595;SDS011;26304;48.794;9.820;2022-09-03T15:59:59;1.42;;;0.98;;
40595;SDS011;26304;48.794;9.820;2022-09-03T16:05:45;1.88;;;1.00;;
40595;SDS011;26304;48.794;9.820;2022-09-03T16:11:33;1.17;;;1.08;;
40595;SDS011;26304;48.794;9.820;2022-09-03T16:17:24;3.03;;;1.20;;
40595;SDS011;26304;48.794;9.820;2022-09-03T16:23:14;1.90;;;1.27;;
40595;SDS011;26304;48.794;9.820;2022-09-03T16:29:05;5.60;;;2.97;;
40595;SDS011;26304;48.794;9.820;2022-09-03T16:34:54;25.88;;;18.25;;
40595;SDS011;26304;48.794;9.820;2022-09-03T16:40:45;35.13;;;29.20;;
40595;SDS011;26304;48.794;9.820;2022-09-03T16:46:39;29.20;;;21.48;;
40595;SDS011;26304;48.794;9.820;2022-09-03T16:52:31;10.57;;;7.47;;
40595;SDS011;26304;48.794;9.820;2022-09-03T16:58:25;3.47;;;2.10;;
40595;SDS011;26304;48.794;9.820;2022-09-03T17:04:22;2.53;;;1.40;;
40595;SDS011;26304;48.794;9.820;2022-09-03T17:10:38;1.10;;;1.00;;
40595;SDS011;26304;48.794;9.820;2022-09-03T17:16:29;1.30;;;1.20;;
40595;SDS011;26304;48.794;9.820;2022-09-03T17:22:26;1.00;;;1.00;;
40595;SDS011;26304;48.794;9.820;2022-09-03T17:28:23;0.73;;;0.73;;
40595;SDS011;26304;48.794;9.820;2022-09-03T17:34:33;1.33;;;1.02;;
40595;SDS011;26304;48.794;9.820;2022-09-03T17:40:31;1.55;;;1.30;;
40595;SDS011;26304;48.794;9.820;2022-09-03T17:46:26;9.52;;;3.22;;
40595;SDS011;26304;48.794;9.820;2022-09-03T17:52:19;7.25;;;2.58;;
40595;SDS011;26304;48.794;9.820;2022-09-03T17:58:08;4.57;;;2.03;;
40595;SDS011;26304;48.794;9.820;2022-09-03T18:03:57;2.22;;;1.40;;
40595;SDS011;26304;48.794;9.820;2022-09-03T18:09:45;1.83;;;1.50;;
40595;SDS011;26304;48.794;9.820;2022-09-03T18:15:35;2.33;;;1.70;;
40595;SDS011;26304;48.794;9.820;2022-09-03T18:21:23;2.47;;;1.75;;
40595;SDS011;26304;48.794;9.820;2022-09-03T18:27:26;4.15;;;1.75;;
40595;SDS011;26304;48.794;9.820;2022-09-03T18:33:31;1.40;;;1.30;;
40595;SDS011;26304;48.794;9.820;2022-09-03T18:39:32;1.77;;;1.67;;
40595;SDS011;26304;48.794;9.820;2022-09-03T18:45:34;1.20;;;1.10;;
40595;SDS011;26304;48.794;9.820;2022-09-03T18:51:43;2.00;;;1.83;;
40595;SDS011;26304;48.794;9.820;2022-09-03T18:57:56;2.17;;;1.42;;
40595;SDS011;26304;48.794;9.820;2022-09-03T19:04:06;1.30;;;1.20;;
40595;SDS011;26304;48.794;9.820;2022-09-03T19:10:20;1.83;;;1.40;;
40595;SDS011;26304;48.794;9.820;2022-09-03T19:16:27;1.30;;;1.20;;
40595;SDS011;26304;48.794;9.820;2022-09-03T19:22:35;1.77;;;1.60;;
40595;SDS011;26304;48.794;9.820;2022-09-03T19:28:38;1.50;;;1.40;;
40595;SDS011;26304;48.794;9.820;2022-09-03T19:34:54;1.38;;;1.20;;
40595;SDS011;26304;48.794;9.820;2022-09-03T19:41:11;1.75;;;1.65;;
40595;SDS011;26304;48.794;9.820;2022-09-03T19:47:20;1.40;;;1.30;;
40595;SDS011;26304;48.794;9.820;2022-09-03T19:53:30;2.15;;;1.73;;
40595;SDS011;26304;48.794;9.820;2022-09-03T19:59:33;4.15;;;1.70;;
40595;SDS011;26304;48.794;9.820;2022-09-03T20:05:37;1.70;;;1.60;;
40595;SDS011;26304;48.794;9.820;2022-09-03T20:11:38;2.30;;;1.90;;
40595;SDS011;26304;48.794;9.820;2022-09-03T20:17:22;2.60;;;2.20;;
40595;SDS011;26304;48.794;9.820;2022-09-03T20:23:18;2.80;;;2.60;;
40595;SDS011;26304;48.794;9.820;2022-09-03T20:35:19;2.15;;;2.05;;
40595;SDS011;26304;48.794;9.820;2022-09-03T20:41:10;2.63;;;2.40;;
40595;SDS011;26304;48.794;9.820;2022-09-03T20:47:04;3.10;;;2.40;;
40595;SDS011;26304;48.794;9.820;2022-09-03T20:52:57;3.65;;;2.05;;
40595;SDS011;26304;48.794;9.820;2022-09-03T20:58:46;2.25;;;1.75;;
40595;SDS011;26304;48.794;9.820;2022-09-03T21:04:40;1.77;;;1.67;;
40595;SDS011;26304;48.794;9.820;2022-09-03T21:10:33;1.75;;;1.65;;
40595;SDS011;26304;48.794;9.820;2022-09-03T21:16:27;2.10;;;1.92;;
40595;SDS011;26304;48.794;9.820;2022-09-03T21:22:22;2.60;;;2.40;;
40595;SDS011;26304;48.794;9.820;2022-09-03T21:28:13;3.00;;;2.45;;
40595;SDS011;26304;48.794;9.820;2022-09-03T21:34:06;2.17;;;2.00;;
40595;SDS011;26304;48.794;9.820;2022-09-03T21:39:52;2.30;;;2.10;;
40595;SDS011;26304;48.794;9.820;2022-09-03T21:45:38;1.70;;;1.60;;
40595;SDS011;26304;48.794;9.820;2022-09-03T21:51:26;2.03;;;1.83;;
40595;SDS011;26304;48.794;9.820;2022-09-03T21:57:18;1.63;;;1.50;;
40595;SDS011;26304;48.794;9.820;2022-09-03T22:03:07;2.60;;;1.75;;
40595;SDS011;26304;48.794;9.820;2022-09-03T22:08:52;1.85;;;1.60;;
40595;SDS011;26304;48.794;9.820;2022-09-03T22:14:44;1.65;;;1.55;;
40595;SDS011;26304;48.794;9.820;2022-09-03T22:20:30;1.88;;;1.77;;
40595;SDS011;26304;48.794;9.820;2022-09-03T22:26:14;4.60;;;1.80;;
40595;SDS011;26304;48.794;9.820;2022-09-03T22:32:07;2.05;;;1.95;;
40595;SDS011;26304;48.794;9.820;2022-09-03T22:38:06;1.52;;;1.42;;
40595;SDS011;26304;48.794;9.820;2022-09-03T22:44:08;6.05;;;5.45;;
40595;SDS011;26304;48.794;9.820;2022-09-03T22:50:06;2.30;;;2.20;;
40595;SDS011;26304;48.794;9.820;2022-09-03T22:55:57;2.10;;;2.00;;
40595;SDS011;26304;48.794;9.820;2022-09-03T23:01:47;2.35;;;2.15;;
40595;SDS011;26304;48.794;9.820;2022-09-03T23:07:41;2.10;;;2.00;;
40595;SDS011;26304;48.794;9.820;2022-09-03T23:13:33;3.22;;;1.60;;
40595;SDS011;26304;48.794;9.820;2022-09-03T23:19:22;2.85;;;2.08;;
40595;SDS011;26304;48.794;9.820;2022-09-03T23:25:21;2.20;;;2.03;;
40595;SDS011;26304;48.794;9.820;2022-09-03T23:31:17;3.13;;;1.98;;
40595;SDS011;26304;48.794;9.820;2022-09-03T23:37:05;2.35;;;1.95;;
40595;SDS011;26304;48.794;9.820;2022-09-03T23:49:30;4.32;;;2.30;;
40595;SDS011;26304;48.794;9.820;2022-09-03T23:55:21;1.90;;;1.80;;
